sensor_id;sensor_type;location;lat;lon;timestamp;temperature;humidity
9564;DHT22;4820;50.870;4.702;2023-08-24T00:01:37;21.30;99.90
9564;DHT22;4820;50.870;4.702;2023-08-24T00:04:03;21.30;99.90
9564;DHT22;4820;50.870;4.702;2023-08-24T00:06:28;21.30;99.90
9564;DHT22;4820;50.870;4.702;2023-08-24T00:08:54;21.30;99.90
9564;DHT22;4820;50.870;4.702;2023-08-24T00:11:20;21.20;99.90
9564;DHT22;4820;50.870;4.702;2023-08-24T00:13:46;21.10;99.90
9564;DHT22;4820;50.870;4.702;2023-08-24T00:16:20;21.10;99.90
9564;DHT22;4820;50.870;4.702;2023-08-24T00:18:46;21.10;99.90
9564;DHT22;4820;50.870;4.702;2023-08-24T00:21:16;21.10;99.90
9564;DHT22;4820;50.870;4.702;2023-08-24T00:23:48;21.00;99.90
9564;DHT22;4820;50.870;4.702;2023-08-24T00:26:14;21.00;99.90
9564;DHT22;4820;50.870;4.702;2023-08-24T00:28:42;21.00;99.90
9564;DHT22;4820;50.870;4.702;2023-08-24T00:31:08;20.90;99.90
9564;DHT22;4820;50.870;4.702;2023-08-24T00:33:34;20.90;99.90
9564;DHT22;4820;50.870;4.702;2023-08-24T00:36:00;20.90;99.90
9564;DHT22;4820;50.870;4.702;2023-08-24T00:38:26;20.90;99.90
9564;DHT22;4820;50.870;4.702;2023-08-24T00:40:52;20.90;99.90
9564;DHT22;4820;50.870;4.702;2023-08-24T00:43:21;20.90;99.90
9564;DHT22;4820;50.870;4.702;2023-08-24T00:45:53;20.90;99.90
9564;DHT22;4820;50.870;4.702;2023-08-24T00:48:21;20.90;99.90
9564;DHT22;4820;50.870;4.702;2023-08-24T00:50:52;21.00;99.90
9564;DHT22;4820;50.870;4.702;2023-08-24T00:53:19;21.00;99.90
9564;DHT22;4820;50.870;4.702;2023-08-24T00:55:46;21.00;99.90
9564;DHT22;4820;50.870;4.702;2023-08-24T00:58:13;21.00;99.90
9564;DHT22;4820;50.870;4.702;2023-08-24T01:00:39;21.00;99.90
9564;DHT22;4820;50.870;4.702;2023-08-24T01:03:07;21.00;99.90
9564;DHT22;4820;50.870;4.702;2023-08-24T01:05:32;21.10;99.90
9564;DHT22;4820;50.870;4.702;2023-08-24T01:07:58;21.10;99.90
9564;DHT22;4820;50.870;4.702;2023-08-24T01:11:17;21.20;99.90
9564;DHT22;4820;50.870;4.702;2023-08-24T01:13:21;21.20;99.90
9564;DHT22;4820;50.870;4.702;2023-08-24T01:15:58;21.10;99.90
9564;DHT22;4820;50.870;4.702;2023-08-24T01:18:26;21.10;99.90
9564;DHT22;4820;50.870;4.702;2023-08-24T01:20:53;21.10;99.90
9564;DHT22;4820;50.870;4.702;2023-08-24T01:23:44;21.10;99.90
9564;DHT22;4820;50.870;4.702;2023-08-24T01:26:17;21.10;99.90
9564;DHT22;4820;50.870;4.702;2023-08-24T01:28:45;21.10;99.90
9564;DHT22;4820;50.870;4.702;2023-08-24T01:31:16;21.10;99.90
9564;DHT22;4820;50.870;4.702;2023-08-24T01:33:43;21.00;99.90
9564;DHT22;4820;50.870;4.702;2023-08-24T01:36:11;21.00;99.90
9564;DHT22;4820;50.870;4.702;2023-08-24T01:38:39;21.00;99.90
9564;DHT22;4820;50.870;4.702;2023-08-24T01:41:23;21.00;99.90
9564;DHT22;4820;50.870;4.702;2023-08-24T01:43:53;21.10;99.90
9564;DHT22;4820;50.870;4.702;2023-08-24T01:46:22;21.10;99.90
9564;DHT22;4820;50.870;4.702;2023-08-24T01:48:48;21.20;99.90
9564;DHT22;4820;50.870;4.702;2023-08-24T01:51:14;21.20;99.90
9564;DHT22;4820;50.870;4.702;2023-08-24T01:53:41;21.20;99.90
9564;DHT22;4820;50.870;4.702;2023-08-24T01:56:11;21.20;99.90
9564;DHT22;4820;50.870;4.702;2023-08-24T01:58:38;21.20;99.90
9564;DHT22;4820;50.870;4.702;2023-08-24T02:01:10;21.20;99.90
9564;DHT22;4820;50.870;4.702;2023-08-24T02:03:36;21.20;99.90
9564;DHT22;4820;50.870;4.702;2023-08-24T02:06:02;21.20;99.90
9564;DHT22;4820;50.870;4.702;2023-08-24T02:08:27;21.20;99.90
9564;DHT22;4820;50.870;4.702;2023-08-24T02:10:54;21.10;99.90
9564;DHT22;4820;50.870;4.702;2023-08-24T02:13:20;21.10;99.90
9564;DHT22;4820;50.870;4.702;2023-08-24T02:15:46;21.10;99.90
9564;DHT22;4820;50.870;4.702;2023-08-24T02:18:13;21.30;99.90
9564;DHT22;4820;50.870;4.702;2023-08-24T02:20:39;21.30;99.90
9564;DHT22;4820;50.870;4.702;2023-08-24T02:23:05;21.30;99.90
9564;DHT22;4820;50.870;4.702;2023-08-24T02:25:31;21.30;99.90
9564;DHT22;4820;50.870;4.702;2023-08-24T02:27:57;21.20;99.90
9564;DHT22;4820;50.870;4.702;2023-08-24T02:30:23;21.10;99.90
9564;DHT22;4820;50.870;4.702;2023-08-24T02:32:49;21.00;99.90
9564;DHT22;4820;50.870;4.702;2023-08-24T02:35:16;20.90;99.90
9564;DHT22;4820;50.870;4.702;2023-08-24T02:37:41;20.90;99.90
9564;DHT22;4820;50.870;4.702;2023-08-24T02:40:08;20.80;99.90
9564;DHT22;4820;50.870;4.702;2023-08-24T02:42:34;20.70;99.90
9564;DHT22;4820;50.870;4.702;2023-08-24T02:45:00;20.70;99.90
9564;DHT22;4820;50.870;4.702;2023-08-24T02:47:26;20.60;99.90
9564;DHT22;4820;50.870;4.702;2023-08-24T02:49:52;20.60;99.90
9564;DHT22;4820;50.870;4.702;2023-08-24T02:52:19;20.50;99.90
9564;DHT22;4820;50.870;4.702;2023-08-24T02:54:45;20.40;99.90
9564;DHT22;4820;50.870;4.702;2023-08-24T02:57:10;20.40;99.90
9564;DHT22;4820;50.870;4.702;2023-08-24T02:59:36;20.30;99.90
9564;DHT22;4820;50.870;4.702;2023-08-24T03:02:02;20.40;99.90
9564;DHT22;4820;50.870;4.702;2023-08-24T03:04:29;20.40;99.90
9564;DHT22;4820;50.870;4.702;2023-08-24T03:06:54;20.40;99.90
9564;DHT22;4820;50.870;4.702;2023-08-24T03:09:20;20.40;99.90
9564;DHT22;4820;50.870;4.702;2023-08-24T03:11:46;20.30;99.90
9564;DHT22;4820;50.870;4.702;2023-08-24T03:14:11;20.20;99.90
9564;DHT22;4820;50.870;4.702;2023-08-24T03:16:39;20.20;99.90
9564;DHT22;4820;50.870;4.702;2023-08-24T03:19:05;20.10;99.90
9564;DHT22;4820;50.870;4.702;2023-08-24T03:21:30;20.10;99.90
9564;DHT22;4820;50.870;4.702;2023-08-24T03:23:57;20.10;99.90
9564;DHT22;4820;50.870;4.702;2023-08-24T03:26:22;20.00;99.90
9564;DHT22;4820;50.870;4.702;2023-08-24T03:28:49;20.00;99.90
9564;DHT22;4820;50.870;4.702;2023-08-24T03:31:15;19.90;99.90
9564;DHT22;4820;50.870;4.702;2023-08-24T03:33:41;19.90;99.90
9564;DHT22;4820;50.870;4.702;2023-08-24T03:36:07;19.80;99.90
9564;DHT22;4820;50.870;4.702;2023-08-24T03:38:33;19.70;99.90
9564;DHT22;4820;50.870;4.702;2023-08-24T03:41:02;19.70;99.90
9564;DHT22;4820;50.870;4.702;2023-08-24T03:43:32;19.70;99.90
9564;DHT22;4820;50.870;4.702;2023-08-24T03:46:03;19.70;99.90
9564;DHT22;4820;50.870;4.702;2023-08-24T03:48:29;19.60;99.90
9564;DHT22;4820;50.870;4.702;2023-08-24T03:50:56;19.60;99.90
9564;DHT22;4820;50.870;4.702;2023-08-24T03:53:22;19.60;99.90
9564;DHT22;4820;50.870;4.702;2023-08-24T03:55:49;19.50;99.90
9564;DHT22;4820;50.870;4.702;2023-08-24T03:58:15;19.50;99.90
9564;DHT22;4820;50.870;4.702;2023-08-24T04:00:41;19.50;99.90
9564;DHT22;4820;50.870;4.702;2023-08-24T04:03:07;19.50;99.90
9564;DHT22;4820;50.870;4.702;2023-08-24T04:05:33;19.40;99.90
9564;DHT22;4820;50.870;4.702;2023-08-24T04:07:59;19.40;99.90
9564;DHT22;4820;50.870;4.702;2023-08-24T04:10:29;19.40;99.90
9564;DHT22;4820;50.870;4.702;2023-08-24T04:12:54;19.40;99.90
9564;DHT22;4820;50.870;4.702;2023-08-24T04:15:20;19.40;99.90
9564;DHT22;4820;50.870;4.702;2023-08-24T04:17:46;19.40;99.90
9564;DHT22;4820;50.870;4.702;2023-08-24T04:20:12;19.50;99.90
9564;DHT22;4820;50.870;4.702;2023-08-24T04:22:37;19.50;99.90
9564;DHT22;4820;50.870;4.702;2023-08-24T04:25:03;19.50;99.90
9564;DHT22;4820;50.870;4.702;2023-08-24T04:27:30;19.60;99.90
9564;DHT22;4820;50.870;4.702;2023-08-24T04:29:55;19.70;99.90
9564;DHT22;4820;50.870;4.702;2023-08-24T04:32:22;19.80;99.90
9564;DHT22;4820;50.870;4.702;2023-08-24T04:34:48;19.80;99.90
9564;DHT22;4820;50.870;4.702;2023-08-24T04:37:14;19.80;99.90
9564;DHT22;4820;50.870;4.702;2023-08-24T04:39:39;19.80;99.90
9564;DHT22;4820;50.870;4.702;2023-08-24T04:42:06;19.70;99.90
9564;DHT22;4820;50.870;4.702;2023-08-24T04:44:32;19.70;99.90
9564;DHT22;4820;50.870;4.702;2023-08-24T04:46:58;19.70;99.90
9564;DHT22;4820;50.870;4.702;2023-08-24T04:49:23;19.70;99.90
9564;DHT22;4820;50.870;4.702;2023-08-24T04:51:49;19.80;99.90
9564;DHT22;4820;50.870;4.702;2023-08-24T04:54:15;19.90;99.90
9564;DHT22;4820;50.870;4.702;2023-08-24T04:56:41;19.90;99.90
9564;DHT22;4820;50.870;4.702;2023-08-24T04:59:07;19.90;99.90
9564;DHT22;4820;50.870;4.702;2023-08-24T05:01:34;19.90;99.90
9564;DHT22;4820;50.870;4.702;2023-08-24T05:04:00;19.90;99.90
9564;DHT22;4820;50.870;4.702;2023-08-24T05:06:26;19.90;99.90
9564;DHT22;4820;50.870;4.702;2023-08-24T05:08:52;19.90;99.90
9564;DHT22;4820;50.870;4.702;2023-08-24T05:11:19;19.90;99.90
9564;DHT22;4820;50.870;4.702;2023-08-24T05:13:46;19.80;99.90
9564;DHT22;4820;50.870;4.702;2023-08-24T05:16:12;19.80;99.90
9564;DHT22;4820;50.870;4.702;2023-08-24T05:18:39;19.70;99.90
9564;DHT22;4820;50.870;4.702;2023-08-24T05:21:05;19.70;99.90
9564;DHT22;4820;50.870;4.702;2023-08-24T05:23:32;19.70;99.90
9564;DHT22;4820;50.870;4.702;2023-08-24T05:25:58;19.70;99.90
9564;DHT22;4820;50.870;4.702;2023-08-24T05:28:28;19.80;99.90
9564;DHT22;4820;50.870;4.702;2023-08-24T05:30:54;19.80;99.90
9564;DHT22;4820;50.870;4.702;2023-08-24T05:33:21;19.90;99.90
9564;DHT22;4820;50.870;4.702;2023-08-24T05:35:50;19.90;99.90
9564;DHT22;4820;50.870;4.702;2023-08-24T05:38:17;19.90;99.90
9564;DHT22;4820;50.870;4.702;2023-08-24T05:40:44;20.00;99.90
9564;DHT22;4820;50.870;4.702;2023-08-24T05:43:12;20.00;99.90
9564;DHT22;4820;50.870;4.702;2023-08-24T05:45:38;20.10;99.90
9564;DHT22;4820;50.870;4.702;2023-08-24T05:48:06;20.20;99.90
9564;DHT22;4820;50.870;4.702;2023-08-24T05:50:32;20.30;99.90
9564;DHT22;4820;50.870;4.702;2023-08-24T05:52:57;20.40;99.90
9564;DHT22;4820;50.870;4.702;2023-08-24T05:55:24;20.40;99.90
9564;DHT22;4820;50.870;4.702;2023-08-24T05:57:51;20.40;99.90
9564;DHT22;4820;50.870;4.702;2023-08-24T06:00:16;20.40;99.90
9564;DHT22;4820;50.870;4.702;2023-08-24T06:02:42;20.50;99.90
9564;DHT22;4820;50.870;4.702;2023-08-24T06:05:08;20.50;99.90
9564;DHT22;4820;50.870;4.702;2023-08-24T06:07:35;20.60;99.90
9564;DHT22;4820;50.870;4.702;2023-08-24T06:10:01;20.80;99.90
9564;DHT22;4820;50.870;4.702;2023-08-24T06:12:27;20.80;99.90
9564;DHT22;4820;50.870;4.702;2023-08-24T06:14:53;20.90;99.90
9564;DHT22;4820;50.870;4.702;2023-08-24T06:17:19;20.90;99.90
9564;DHT22;4820;50.870;4.702;2023-08-24T06:19:44;20.90;99.90
9564;DHT22;4820;50.870;4.702;2023-08-24T06:22:10;20.90;99.90
9564;DHT22;4820;50.870;4.702;2023-08-24T06:24:36;20.90;99.90
9564;DHT22;4820;50.870;4.702;2023-08-24T06:27:01;21.00;99.90
9564;DHT22;4820;50.870;4.702;2023-08-24T06:29:29;21.00;99.90
9564;DHT22;4820;50.870;4.702;2023-08-24T06:31:55;21.00;99.90
9564;DHT22;4820;50.870;4.702;2023-08-24T06:34:21;21.10;99.90
9564;DHT22;4820;50.870;4.702;2023-08-24T06:36:46;21.20;99.90
9564;DHT22;4820;50.870;4.702;2023-08-24T06:39:13;21.30;99.90
9564;DHT22;4820;50.870;4.702;2023-08-24T06:41:38;21.50;99.90
9564;DHT22;4820;50.870;4.702;2023-08-24T06:44:04;21.60;99.90
9564;DHT22;4820;50.870;4.702;2023-08-24T06:46:31;21.70;99.90
9564;DHT22;4820;50.870;4.702;2023-08-24T06:48:56;21.80;99.90
9564;DHT22;4820;50.870;4.702;2023-08-24T06:51:22;21.90;99.90
9564;DHT22;4820;50.870;4.702;2023-08-24T06:53:48;21.90;99.90
9564;DHT22;4820;50.870;4.702;2023-08-24T06:56:14;22.00;99.90
9564;DHT22;4820;50.870;4.702;2023-08-24T06:58:45;22.10;99.90
9564;DHT22;4820;50.870;4.702;2023-08-24T07:01:11;22.10;99.90
9564;DHT22;4820;50.870;4.702;2023-08-24T07:03:37;22.20;99.90
9564;DHT22;4820;50.870;4.702;2023-08-24T07:06:06;22.30;99.90
9564;DHT22;4820;50.870;4.702;2023-08-24T07:08:33;22.30;99.90
9564;DHT22;4820;50.870;4.702;2023-08-24T07:10:58;22.40;99.90
9564;DHT22;4820;50.870;4.702;2023-08-24T07:13:24;22.50;99.90
9564;DHT22;4820;50.870;4.702;2023-08-24T07:15:50;22.60;99.90
9564;DHT22;4820;50.870;4.702;2023-08-24T07:18:16;22.70;99.90
9564;DHT22;4820;50.870;4.702;2023-08-24T07:20:42;22.90;99.90
9564;DHT22;4820;50.870;4.702;2023-08-24T07:23:08;23.10;99.90
9564;DHT22;4820;50.870;4.702;2023-08-24T07:25:33;23.20;99.90
9564;DHT22;4820;50.870;4.702;2023-08-24T07:28:00;23.30;99.90
9564;DHT22;4820;50.870;4.702;2023-08-24T07:30:28;23.40;99.90
9564;DHT22;4820;50.870;4.702;2023-08-24T07:32:54;23.60;99.90
9564;DHT22;4820;50.870;4.702;2023-08-24T07:35:21;23.70;99.90
9564;DHT22;4820;50.870;4.702;2023-08-24T07:37:51;23.90;99.90
9564;DHT22;4820;50.870;4.702;2023-08-24T07:40:17;24.00;99.90
9564;DHT22;4820;50.870;4.702;2023-08-24T07:42:44;24.10;99.90
9564;DHT22;4820;50.870;4.702;2023-08-24T07:45:10;24.10;99.90
9564;DHT22;4820;50.870;4.702;2023-08-24T07:47:35;24.10;99.90
9564;DHT22;4820;50.870;4.702;2023-08-24T07:50:01;24.20;99.90
9564;DHT22;4820;50.870;4.702;2023-08-24T07:52:27;24.20;99.90
9564;DHT22;4820;50.870;4.702;2023-08-24T07:54:54;24.30;99.90
9564;DHT22;4820;50.870;4.702;2023-08-24T07:57:20;24.40;99.90
9564;DHT22;4820;50.870;4.702;2023-08-24T07:59:46;24.40;99.90
9564;DHT22;4820;50.870;4.702;2023-08-24T08:02:13;24.40;99.90
9564;DHT22;4820;50.870;4.702;2023-08-24T08:04:40;24.50;99.90
9564;DHT22;4820;50.870;4.702;2023-08-24T08:07:06;24.50;99.90
9564;DHT22;4820;50.870;4.702;2023-08-24T08:09:33;24.60;99.90
9564;DHT22;4820;50.870;4.702;2023-08-24T08:12:00;24.70;99.90
9564;DHT22;4820;50.870;4.702;2023-08-24T08:14:26;24.70;99.90
9564;DHT22;4820;50.870;4.702;2023-08-24T08:16:52;24.80;99.90
9564;DHT22;4820;50.870;4.702;2023-08-24T08:19:17;24.80;99.90
9564;DHT22;4820;50.870;4.702;2023-08-24T08:21:45;24.90;99.90
9564;DHT22;4820;50.870;4.702;2023-08-24T08:24:10;24.90;99.90
9564;DHT22;4820;50.870;4.702;2023-08-24T08:26:36;25.00;99.90
9564;DHT22;4820;50.870;4.702;2023-08-24T08:29:02;25.20;99.90
9564;DHT22;4820;50.870;4.702;2023-08-24T08:31:27;25.20;99.90
9564;DHT22;4820;50.870;4.702;2023-08-24T08:33:53;25.20;99.90
9564;DHT22;4820;50.870;4.702;2023-08-24T08:36:19;25.30;99.90
9564;DHT22;4820;50.870;4.702;2023-08-24T08:38:44;25.30;99.90
9564;DHT22;4820;50.870;4.702;2023-08-24T08:41:10;25.30;99.90
9564;DHT22;4820;50.870;4.702;2023-08-24T08:43:38;25.40;99.90
9564;DHT22;4820;50.870;4.702;2023-08-24T08:46:04;25.50;99.90
9564;DHT22;4820;50.870;4.702;2023-08-24T08:48:31;25.60;99.90
9564;DHT22;4820;50.870;4.702;2023-08-24T08:50:58;25.70;99.90
9564;DHT22;4820;50.870;4.702;2023-08-24T08:53:23;25.80;99.90
9564;DHT22;4820;50.870;4.702;2023-08-24T08:55:51;25.80;99.90
9564;DHT22;4820;50.870;4.702;2023-08-24T08:58:19;25.90;99.90
9564;DHT22;4820;50.870;4.702;2023-08-24T09:00:47;25.90;99.90
9564;DHT22;4820;50.870;4.702;2023-08-24T09:03:15;25.90;99.90
9564;DHT22;4820;50.870;4.702;2023-08-24T09:05:44;26.00;99.90
9564;DHT22;4820;50.870;4.702;2023-08-24T09:08:14;26.10;99.90
9564;DHT22;4820;50.870;4.702;2023-08-24T09:10:41;26.10;99.90
9564;DHT22;4820;50.870;4.702;2023-08-24T09:13:07;26.10;99.90
9564;DHT22;4820;50.870;4.702;2023-08-24T09:15:35;26.00;99.90
9564;DHT22;4820;50.870;4.702;2023-08-24T09:18:01;25.90;99.90
9564;DHT22;4820;50.870;4.702;2023-08-24T09:20:29;25.90;99.90
9564;DHT22;4820;50.870;4.702;2023-08-24T09:22:55;25.80;99.90
9564;DHT22;4820;50.870;4.702;2023-08-24T09:25:24;25.70;99.90
9564;DHT22;4820;50.870;4.702;2023-08-24T09:28:00;25.60;99.90
9564;DHT22;4820;50.870;4.702;2023-08-24T09:30:30;25.60;99.90
9564;DHT22;4820;50.870;4.702;2023-08-24T09:33:04;25.50;99.90
9564;DHT22;4820;50.870;4.702;2023-08-24T09:35:34;25.50;99.90
9564;DHT22;4820;50.870;4.702;2023-08-24T09:38:01;25.40;99.90
9564;DHT22;4820;50.870;4.702;2023-08-24T09:40:26;25.30;99.90
9564;DHT22;4820;50.870;4.702;2023-08-24T09:42:52;25.20;99.90
9564;DHT22;4820;50.870;4.702;2023-08-24T09:45:18;25.10;99.90
9564;DHT22;4820;50.870;4.702;2023-08-24T09:47:51;24.90;99.90
9564;DHT22;4820;50.870;4.702;2023-08-24T09:50:20;24.80;99.90
9564;DHT22;4820;50.870;4.702;2023-08-24T09:52:47;24.60;99.90
9564;DHT22;4820;50.870;4.702;2023-08-24T09:55:19;24.40;99.90
9564;DHT22;4820;50.870;4.702;2023-08-24T09:57:50;24.30;99.90
9564;DHT22;4820;50.870;4.702;2023-08-24T10:00:18;24.00;99.90
9564;DHT22;4820;50.870;4.702;2023-08-24T10:02:51;23.90;99.90
9564;DHT22;4820;50.870;4.702;2023-08-24T10:05:24;23.70;99.90
9564;DHT22;4820;50.870;4.702;2023-08-24T10:07:55;23.60;99.90
9564;DHT22;4820;50.870;4.702;2023-08-24T10:10:23;23.40;99.90
9564;DHT22;4820;50.870;4.702;2023-08-24T10:12:59;23.20;99.90
9564;DHT22;4820;50.870;4.702;2023-08-24T10:15:26;23.00;99.90
9564;DHT22;4820;50.870;4.702;2023-08-24T10:17:53;22.80;99.90
9564;DHT22;4820;50.870;4.702;2023-08-24T10:20:21;22.60;99.90
9564;DHT22;4820;50.870;4.702;2023-08-24T10:22:47;22.50;99.90
9564;DHT22;4820;50.870;4.702;2023-08-24T10:25:16;22.40;99.90
9564;DHT22;4820;50.870;4.702;2023-08-24T10:27:43;22.30;99.90
9564;DHT22;4820;50.870;4.702;2023-08-24T10:30:12;22.20;99.90
9564;DHT22;4820;50.870;4.702;2023-08-24T10:32:40;22.20;99.90
9564;DHT22;4820;50.870;4.702;2023-08-24T10:35:06;22.10;99.90
9564;DHT22;4820;50.870;4.702;2023-08-24T10:37:32;22.00;99.90
9564;DHT22;4820;50.870;4.702;2023-08-24T10:39:59;21.90;99.90
9564;DHT22;4820;50.870;4.702;2023-08-24T10:42:27;21.80;99.90
9564;DHT22;4820;50.870;4.702;2023-08-24T10:44:53;21.80;99.90
9564;DHT22;4820;50.870;4.702;2023-08-24T10:47:21;21.70;99.90
9564;DHT22;4820;50.870;4.702;2023-08-24T10:49:58;21.70;99.90
9564;DHT22;4820;50.870;4.702;2023-08-24T10:54:56;21.70;99.90
9564;DHT22;4820;50.870;4.702;2023-08-24T11:00:08;21.80;99.90
9564;DHT22;4820;50.870;4.702;2023-08-24T11:02:44;21.90;99.90
9564;DHT22;4820;50.870;4.702;2023-08-24T11:05:21;22.10;99.90
9564;DHT22;4820;50.870;4.702;2023-08-24T11:10:25;22.50;99.90
9564;DHT22;4820;50.870;4.702;2023-08-24T11:15:44;22.70;99.90
9564;DHT22;4820;50.870;4.702;2023-08-24T11:18:25;22.80;99.90
9564;DHT22;4820;50.870;4.702;2023-08-24T11:21:01;22.80;99.90
9564;DHT22;4820;50.870;4.702;2023-08-24T11:23:30;23.00;99.90
9564;DHT22;4820;50.870;4.702;2023-08-24T11:25:57;23.10;99.90
9564;DHT22;4820;50.870;4.702;2023-08-24T11:28:25;23.20;99.90
9564;DHT22;4820;50.870;4.702;2023-08-24T11:30:54;23.30;99.90
9564;DHT22;4820;50.870;4.702;2023-08-24T11:35:53;23.30;99.90
9564;DHT22;4820;50.870;4.702;2023-08-24T11:38:19;23.40;99.90
9564;DHT22;4820;50.870;4.702;2023-08-24T11:40:45;23.50;99.90
9564;DHT22;4820;50.870;4.702;2023-08-24T11:43:11;23.50;99.90
9564;DHT22;4820;50.870;4.702;2023-08-24T11:45:38;23.70;99.90
9564;DHT22;4820;50.870;4.702;2023-08-24T11:48:06;23.70;99.90
9564;DHT22;4820;50.870;4.702;2023-08-24T11:50:33;23.70;99.90
9564;DHT22;4820;50.870;4.702;2023-08-24T11:53:02;23.70;99.90
9564;DHT22;4820;50.870;4.702;2023-08-24T11:55:28;23.60;99.90
9564;DHT22;4820;50.870;4.702;2023-08-24T11:57:54;23.50;99.90
9564;DHT22;4820;50.870;4.702;2023-08-24T12:00:21;23.50;99.90
9564;DHT22;4820;50.870;4.702;2023-08-24T12:02:48;23.40;99.90
9564;DHT22;4820;50.870;4.702;2023-08-24T12:05:24;23.40;99.90
9564;DHT22;4820;50.870;4.702;2023-08-24T12:07:54;23.30;99.90
9564;DHT22;4820;50.870;4.702;2023-08-24T12:10:20;23.20;99.90
9564;DHT22;4820;50.870;4.702;2023-08-24T12:12:46;23.30;99.90
9564;DHT22;4820;50.870;4.702;2023-08-24T12:15:20;23.20;99.90
9564;DHT22;4820;50.870;4.702;2023-08-24T12:17:49;23.10;99.90
9564;DHT22;4820;50.870;4.702;2023-08-24T12:20:22;23.10;99.90
9564;DHT22;4820;50.870;4.702;2023-08-24T12:22:52;23.10;99.90
9564;DHT22;4820;50.870;4.702;2023-08-24T12:25:18;23.00;99.90
9564;DHT22;4820;50.870;4.702;2023-08-24T12:27:43;22.90;99.90
9564;DHT22;4820;50.870;4.702;2023-08-24T12:30:11;22.90;99.90
9564;DHT22;4820;50.870;4.702;2023-08-24T12:32:45;22.80;99.90
9564;DHT22;4820;50.870;4.702;2023-08-24T12:35:12;22.70;99.90
9564;DHT22;4820;50.870;4.702;2023-08-24T12:37:37;22.70;99.90
9564;DHT22;4820;50.870;4.702;2023-08-24T12:40:03;22.70;99.90
9564;DHT22;4820;50.870;4.702;2023-08-24T12:42:31;22.70;99.90
9564;DHT22;4820;50.870;4.702;2023-08-24T12:44:57;22.70;99.90
9564;DHT22;4820;50.870;4.702;2023-08-24T12:47:23;22.60;99.90
9564;DHT22;4820;50.870;4.702;2023-08-24T12:49:49;22.50;99.90
9564;DHT22;4820;50.870;4.702;2023-08-24T12:52:17;22.50;99.90
9564;DHT22;4820;50.870;4.702;2023-08-24T12:54:43;22.40;99.90
9564;DHT22;4820;50.870;4.702;2023-08-24T12:57:09;22.30;99.90
9564;DHT22;4820;50.870;4.702;2023-08-24T12:59:34;22.20;99.90
9564;DHT22;4820;50.870;4.702;2023-08-24T13:02:00;22.10;99.90
9564;DHT22;4820;50.870;4.702;2023-08-24T13:04:26;22.00;99.90
9564;DHT22;4820;50.870;4.702;2023-08-24T13:06:54;21.80;99.90
9564;DHT22;4820;50.870;4.702;2023-08-24T13:09:20;21.80;99.90
9564;DHT22;4820;50.870;4.702;2023-08-24T13:11:48;21.70;99.90
9564;DHT22;4820;50.870;4.702;2023-08-24T13:14:14;21.60;99.90
9564;DHT22;4820;50.870;4.702;2023-08-24T13:16:40;21.60;99.90
9564;DHT22;4820;50.870;4.702;2023-08-24T13:19:05;21.60;99.90
9564;DHT22;4820;50.870;4.702;2023-08-24T13:21:31;21.60;99.90
9564;DHT22;4820;50.870;4.702;2023-08-24T13:23:57;21.60;99.90
9564;DHT22;4820;50.870;4.702;2023-08-24T13:26:24;21.50;99.90
9564;DHT22;4820;50.870;4.702;2023-08-24T13:28:49;21.40;99.90
9564;DHT22;4820;50.870;4.702;2023-08-24T13:31:16;21.40;99.90
9564;DHT22;4820;50.870;4.702;2023-08-24T13:33:42;21.40;99.90
9564;DHT22;4820;50.870;4.702;2023-08-24T13:36:09;21.40;99.90
9564;DHT22;4820;50.870;4.702;2023-08-24T13:38:34;21.30;99.90
9564;DHT22;4820;50.870;4.702;2023-08-24T13:41:00;21.30;99.90
9564;DHT22;4820;50.870;4.702;2023-08-24T13:43:26;21.30;99.90
9564;DHT22;4820;50.870;4.702;2023-08-24T13:45:51;21.30;99.90
9564;DHT22;4820;50.870;4.702;2023-08-24T13:48:17;21.30;99.90
9564;DHT22;4820;50.870;4.702;2023-08-24T13:50:50;21.30;99.90
9564;DHT22;4820;50.870;4.702;2023-08-24T13:53:18;21.40;99.90
9564;DHT22;4820;50.870;4.702;2023-08-24T13:55:44;21.40;99.90
9564;DHT22;4820;50.870;4.702;2023-08-24T13:58:10;21.40;99.90
9564;DHT22;4820;50.870;4.702;2023-08-24T14:00:36;21.40;99.90
9564;DHT22;4820;50.870;4.702;2023-08-24T14:03:03;21.40;99.90
9564;DHT22;4820;50.870;4.702;2023-08-24T14:05:29;21.50;99.90
9564;DHT22;4820;50.870;4.702;2023-08-24T14:07:55;21.60;99.90
9564;DHT22;4820;50.870;4.702;2023-08-24T14:10:21;21.60;99.90
9564;DHT22;4820;50.870;4.702;2023-08-24T14:12:46;21.70;99.90
9564;DHT22;4820;50.870;4.702;2023-08-24T14:15:12;21.70;99.90
9564;DHT22;4820;50.870;4.702;2023-08-24T14:17:39;21.70;99.90
9564;DHT22;4820;50.870;4.702;2023-08-24T14:20:05;21.80;99.90
9564;DHT22;4820;50.870;4.702;2023-08-24T14:22:31;21.80;99.90
9564;DHT22;4820;50.870;4.702;2023-08-24T14:24:56;21.80;99.90
9564;DHT22;4820;50.870;4.702;2023-08-24T14:27:22;21.80;99.90
9564;DHT22;4820;50.870;4.702;2023-08-24T14:29:48;21.80;99.90
9564;DHT22;4820;50.870;4.702;2023-08-24T14:32:14;21.70;99.90
9564;DHT22;4820;50.870;4.702;2023-08-24T14:34:39;21.70;99.90
9564;DHT22;4820;50.870;4.702;2023-08-24T14:37:05;21.60;99.90
9564;DHT22;4820;50.870;4.702;2023-08-24T14:39:31;21.60;99.90
9564;DHT22;4820;50.870;4.702;2023-08-24T14:41:56;21.60;99.90
9564;DHT22;4820;50.870;4.702;2023-08-24T14:44:22;21.60;99.90
9564;DHT22;4820;50.870;4.702;2023-08-24T14:46:48;21.70;99.90
9564;DHT22;4820;50.870;4.702;2023-08-24T14:49:14;21.70;99.90
9564;DHT22;4820;50.870;4.702;2023-08-24T14:51:44;21.80;99.90
9564;DHT22;4820;50.870;4.702;2023-08-24T14:54:10;21.90;99.90
9564;DHT22;4820;50.870;4.702;2023-08-24T14:56:38;22.00;99.90
9564;DHT22;4820;50.870;4.702;2023-08-24T14:59:04;22.10;99.90
9564;DHT22;4820;50.870;4.702;2023-08-24T15:01:29;22.10;99.90
9564;DHT22;4820;50.870;4.702;2023-08-24T15:03:55;22.20;99.90
9564;DHT22;4820;50.870;4.702;2023-08-24T15:06:21;22.20;99.90
9564;DHT22;4820;50.870;4.702;2023-08-24T15:08:47;22.20;99.90
9564;DHT22;4820;50.870;4.702;2023-08-24T15:11:15;22.20;99.90
9564;DHT22;4820;50.870;4.702;2023-08-24T15:13:43;22.30;99.90
9564;DHT22;4820;50.870;4.702;2023-08-24T15:16:09;22.40;99.90
9564;DHT22;4820;50.870;4.702;2023-08-24T15:18:35;22.40;99.90
9564;DHT22;4820;50.870;4.702;2023-08-24T15:21:01;22.50;99.90
9564;DHT22;4820;50.870;4.702;2023-08-24T15:23:29;22.50;99.90
9564;DHT22;4820;50.870;4.702;2023-08-24T15:25:57;22.60;99.90
9564;DHT22;4820;50.870;4.702;2023-08-24T15:28:24;22.70;99.90
9564;DHT22;4820;50.870;4.702;2023-08-24T15:30:50;22.70;99.90
9564;DHT22;4820;50.870;4.702;2023-08-24T15:33:17;22.80;99.90
9564;DHT22;4820;50.870;4.702;2023-08-24T15:35:43;22.90;99.90
9564;DHT22;4820;50.870;4.702;2023-08-24T15:38:09;23.00;99.90
9564;DHT22;4820;50.870;4.702;2023-08-24T15:40:35;23.00;99.90
9564;DHT22;4820;50.870;4.702;2023-08-24T15:43:02;23.10;99.90
9564;DHT22;4820;50.870;4.702;2023-08-24T15:45:28;23.20;99.90
9564;DHT22;4820;50.870;4.702;2023-08-24T15:47:56;23.20;99.90
9564;DHT22;4820;50.870;4.702;2023-08-24T15:50:21;23.40;99.90
9564;DHT22;4820;50.870;4.702;2023-08-24T15:52:48;23.50;99.90
9564;DHT22;4820;50.870;4.702;2023-08-24T15:55:14;23.60;99.90
9564;DHT22;4820;50.870;4.702;2023-08-24T15:57:41;23.70;99.90
9564;DHT22;4820;50.870;4.702;2023-08-24T16:00:07;23.80;99.90
9564;DHT22;4820;50.870;4.702;2023-08-24T16:02:38;23.80;99.90
9564;DHT22;4820;50.870;4.702;2023-08-24T16:05:04;23.80;99.90
9564;DHT22;4820;50.870;4.702;2023-08-24T16:07:31;23.70;99.90
9564;DHT22;4820;50.870;4.702;2023-08-24T16:09:56;23.70;99.90
9564;DHT22;4820;50.870;4.702;2023-08-24T16:12:22;23.70;99.90
9564;DHT22;4820;50.870;4.702;2023-08-24T16:14:48;23.70;99.90